Terminal Aerodrome Forecast
Issued by NWS

Home | Current Version | Previous Version | Text Only | Print | Product List | Glossary On
Versions: 1 2 3 4 5 6 7 8 9 10 11 12 13 14 15 16 17 18 19 20 21 22 23
000
FTUS45 KABQ 152300 RRA
TAFLVS
TAF
KLVS 152344Z 1600/1624 10012G22KT P6SM SCT045 BKN080
      TEMPO 1600/1602 4SM -TSRA OVC035CB
     FM160200 09008KT P6SM VCSH OVC035
     FM160400 03003KT P6SM OVC025
     FM161000 VRB03KT P6SM OVC012
     FM161500 22007KT P6SM BKN035
     FM162000 22012G22KT P6SM FEW060 SCT120=

USA.gov is the U.S. government's official web portal to all federal, state and local government web resources and services.